Time;durP1;ratioP1;P1;durP2;ratioP2;P2;SDS_P1;SDS_P2;PMS_P1;PMS_P2;Temp;Humidity;BMP_temperature;BMP_pressure;BME280_temperature;BME280_humidity;BME280_pressure;Samples;Min_cycle;Max_cycle;Signal;HPM_P1;HPM_P2
2022/08/17 00:01:13;;;;;;;29.25;13.85;;;;;;;20.69;59.58;100015.47;5020226;28;20411;-93
2022/08/17 00:08:36;;;;;;;19.37;13.77;;;;;;;20.34;59.92;99972.63;5020733;28;20045;-96
2022/08/17 00:11:12;;;;;;;23.48;14.45;;;;;;;20.82;60.08;100053.84;4986691;28;20049;-94
2022/08/17 00:18:41;;;;;;;22.13;14.38;;;;;;;20.44;60.26;100009.34;5019219;28;20496;-94
2022/08/17 00:21:09;;;;;;;26.50;14.68;;;;;;;20.47;60.41;100026.09;4969190;28;20099;-96
2022/08/17 00:23:36;;;;;;;21.80;14.07;;;;;;;20.14;60.87;99985.66;4964780;28;20522;-96
2022/08/17 00:31:00;;;;;;;21.35;13.95;;;;;;;20.50;60.94;100035.66;5002538;28;20120;-95
2022/08/17 00:33:28;;;;;;;;;;;;;;;20.69;60.91;100069.03;4986675;28;20504;-93
2022/08/17 00:43:29;;;;;;;20.63;13.20;;;;;;;20.13;61.62;99995.16;5016259;28;20034;-94
2022/08/17 00:51:18;;;;;;;27.63;14.63;;;;;;;20.51;62.35;100059.53;5016378;28;20041;-94
2022/08/17 00:56:32;;;;;;;24.92;13.60;;;;;;;19.81;62.62;99969.41;5004944;28;20045;-96
2022/08/17 00:58:59;;;;;;;;;;;;;;;20.40;62.79;100057.28;4956318;28;20030;-96
2022/08/17 01:06:24;;;;;;;27.92;13.75;;;;;;;19.77;62.81;99967.69;5019559;28;20061;-95
2022/08/17 01:16:25;;;;;;;27.63;14.55;;;;;;;20.20;63.53;100047.28;5017262;28;20148;-94
2022/08/17 01:19:01;;;;;;;22.30;14.40;;;;;;;19.82;63.69;99998.75;4963621;28;20050;-95
2022/08/17 01:21:53;;;;;;;28.17;15.95;;;;;;;20.18;63.53;100049.59;4996776;28;20054;-94
2022/08/17 01:26:50;;;;;;;24.85;14.68;;;;;;;19.66;63.61;99973.00;4981131;28;20606;-94
2022/08/17 01:32:07;;;;;;;25.08;14.23;;;;;;;19.87;64.01;100008.81;4989037;28;20065;-93
2022/08/17 01:39:40;;;;;;;22.67;14.30;;;;;;;19.65;64.39;99999.94;4975982;28;20042;-96
2022/08/17 01:42:39;;;;;;;25.15;14.25;;;;;;;19.92;64.72;100039.84;4944126;28;20110;-93
2022/08/17 01:45:23;;;;;;;21.85;13.85;;;;;;;19.71;64.84;100009.59;4964465;28;20110;-95
2022/08/17 01:50:28;;;;;;;23.67;13.75;;;;;;;19.42;64.92;99979.47;4999390;28;20125;-95
2022/08/17 01:53:00;;;;;;;23.90;12.85;;;;;;;19.32;64.90;99964.19;4963453;28;20045;-95
2022/08/17 01:55:37;;;;;;;26.83;14.10;;;;;;;19.48;65.14;99992.72;4965105;28;20050;-94
2022/08/17 02:23:02;;;;;;;23.67;13.80;;;;;;;19.04;66.25;99974.47;4994396;28;20045;-91
2022/08/17 02:40:20;;;;;;;39.45;15.15;;;;;;;19.27;66.75;100033.75;5003050;28;20512;-93
2022/08/17 02:42:47;;;;;;;26.13;13.70;;;;;;;19.27;67.05;100053.16;4999338;28;20034;-96
2022/08/17 02:52:42;;;;;;;20.48;13.93;;;;;;;18.89;67.23;99996.25;5000320;28;20078;-91
2022/08/17 03:02:39;;;;;;;23.88;13.63;;;;;;;19.20;67.35;100039.91;5001814;28;20078;-96
2022/08/17 03:15:09;;;;;;;28.42;13.77;;;;;;;19.33;66.63;100048.94;5022127;28;20088;-93
2022/08/17 03:20:06;;;;;;;24.88;13.98;;;;;;;18.97;66.51;99994.50;5021422;28;20092;-94
2022/08/17 03:22:46;;;;;;;28.90;14.73;;;;;;;19.16;66.38;100016.00;5001239;28;20046;-96
2022/08/17 03:27:38;;;;;;;25.13;14.70;;;;;;;18.84;66.48;99960.50;5021471;28;20041;-94
2022/08/17 03:30:05;;;;;;;;;;;;;;;19.39;66.26;100042.00;4972150;28;20148;-94
2022/08/17 03:32:39;;;;;;;30.92;14.20;;;;;;;19.05;66.28;99990.78;4970681;28;20465;-94
2022/08/17 03:45:03;;;;;;;26.60;16.70;;;;;;;19.32;65.94;100013.28;5019007;28;20064;-92
2022/08/17 04:01:14;;;;;;;29.88;19.30;;;;;;;19.47;65.45;99996.66;5001542;28;20034;-92
2022/08/17 04:08:38;;;;;;;150.18;24.42;;;;;;;19.78;65.06;100008.97;5029227;28;20037;-92
2022/08/17 04:11:07;;;;;;;101.45;25.00;;;;;;;19.79;64.25;100021.66;4983790;28;20064;-94
2022/08/17 04:18:31;;;;;;;95.45;25.15;;;;;;;19.69;64.03;99977.81;5019478;28;20435;-91
2022/08/17 04:20:57;;;;;;;105.13;25.55;;;;;;;20.13;64.20;100041.53;4985105;28;20100;-94
2022/08/17 04:23:27;;;;;;;102.80;24.48;;;;;;;19.76;63.92;99972.44;4955997;28;20044;-95
2022/08/17 04:35:55;;;;;;;55.63;24.38;;;;;;;20.21;63.40;99985.03;5007822;28;20488;-93
2022/08/17 04:38:25;;;;;;;58.28;24.55;;;;;;;20.43;63.10;100016.88;4966160;28;20057;-93
2022/08/17 04:43:39;;;;;;;56.15;25.23;;;;;;;20.60;62.39;100010.13;4978403;28;20037;-92
2022/08/17 04:46:27;;;;;;;43.95;25.23;;;;;;;20.85;61.66;100036.44;4973574;28;20064;-93
2022/08/17 04:53:51;;;;;;;50.93;27.03;;;;;;;21.15;61.45;100041.44;5011579;28;20038;-95
2022/08/17 04:56:56;;;;;;;50.85;25.60;;;;;;;21.06;61.33;100016.66;4986042;28;20053;-96
2022/08/17 05:04:25;;;;;;;52.85;26.77;;;;;;;21.32;60.77;100010.41;4947747;28;20130;-94
2022/08/17 05:14:23;;;;;;;57.67;30.25;;;;;;;21.22;59.73;99958.16;4967506;28;20616;-96
2022/08/17 05:19:24;;;;;;;77.47;30.45;;;;;;;21.24;59.71;99916.09;4984557;28;20046;-94
2022/08/17 05:21:59;;;;;;;55.03;31.00;;;;;;;21.72;59.31;99989.69;4936229;29;20065;-96
2022/08/17 05:31:52;;;;;;;64.05;33.45;;;;;;;21.90;58.09;99967.69;4971952;28;20540;-92
2022/08/17 05:34:18;;;;;;;64.45;32.75;;;;;;;21.75;58.25;99922.13;4912401;29;20090;-94
2022/08/17 05:36:46;;;;;;;63.42;34.38;;;;;;;21.89;57.43;99941.06;4931480;29;20043;-95
2022/08/17 05:39:25;;;;;;;61.05;33.42;;;;;;;22.42;56.86;100016.28;4933185;29;20047;-95
2022/08/17 05:42:04;;;;;;;60.10;33.95;;;;;;;21.92;55.99;99931.13;4983682;28;20037;-93
2022/08/17 05:44:44;;;;;;;76.03;33.60;;;;;;;22.37;56.39;99983.16;5019142;28;20056;-94
2022/08/17 05:47:14;;;;;;;62.65;33.60;;;;;;;22.60;56.08;100008.16;5008407;28;20046;-95
2022/08/17 05:49:40;;;;;;;77.15;33.13;;;;;;;22.23;56.53;99941.19;4976208;28;20045;-93
2022/08/17 05:52:25;;;;;;;109.32;35.75;;;;;;;22.36;56.37;99941.75;4972238;28;20045;-91
2022/08/17 05:55:19;;;;;;;63.72;31.92;;;;;;;22.87;56.06;100010.88;4969617;28;20069;-95
2022/08/17 05:58:04;;;;;;;66.93;32.85;;;;;;;22.51;56.41;99932.38;4967779;28;20076;-90
2022/08/17 06:00:49;;;;;;;100.50;34.30;;;;;;;22.94;56.23;99983.13;4970094;28;20034;-95
2022/08/17 06:03:35;;;;;;;63.83;31.73;;;;;;;22.88;55.47;99951.13;4993844;28;20038;-89
2022/08/17 06:06:17;;;;;;;71.68;32.05;;;;;;;23.31;55.07;100004.63;5011453;28;20057;-91
2022/08/17 06:09:20;;;;;;;56.40;28.13;;;;;;;23.43;55.52;100009.97;5010655;28;20053;-90
2022/08/17 06:12:34;;;;;;;49.55;28.90;;;;;;;23.51;54.68;99992.13;4955117;28;20105;-84
2022/08/17 06:15:08;;;;;;;71.80;30.30;;;;;;;23.60;54.44;100006.53;4941627;28;20058;-85
2022/08/17 06:17:36;;;;;;;55.58;27.65;;;;;;;23.72;54.62;100011.06;4937915;28;20050;-86
2022/08/17 06:20:13;;;;;;;75.85;27.80;;;;;;;23.81;54.48;100017.13;4974079;28;20051;-85
2022/08/17 06:22:45;;;;;;;49.60;26.92;;;;;;;23.60;53.57;99964.66;4954999;28;20060;-86
2022/08/17 06:25:20;;;;;;;56.92;26.20;;;;;;;24.01;54.04;100012.13;4973449;28;20137;-88
2022/08/17 06:28:07;;;;;;;57.15;25.75;;;;;;;24.11;53.01;100007.81;4940234;28;20066;-85
2022/08/17 06:30:45;;;;;;;47.50;25.02;;;;;;;24.21;54.12;100014.66;4970756;28;20027;-85
2022/08/17 06:33:22;;;;;;;67.53;24.90;;;;;;;24.09;52.64;99990.63;4936131;28;20523;-86
2022/08/17 06:36:07;;;;;;;49.65;24.00;;;;;;;24.26;52.64;100005.91;4921545;28;20035;-86
2022/08/17 06:39:06;;;;;;;54.03;23.83;;;;;;;24.36;53.65;100010.75;4969266;28;20520;-86
2022/08/17 06:41:45;;;;;;;43.13;21.65;;;;;;;24.33;52.31;99983.59;4973519;28;20861;-86
2022/08/17 06:44:19;;;;;;;75.72;22.55;;;;;;;24.52;50.77;100008.50;4959407;28;20523;-88
2022/08/17 06:46:52;;;;;;;64.15;22.60;;;;;;;24.63;51.44;100004.94;4959017;28;20062;-87
2022/08/17 06:49:56;;;;;;;82.80;22.13;;;;;;;24.43;50.96;99963.31;4991836;28;20435;-88
2022/08/17 06:53:02;;;;;;;60.55;21.45;;;;;;;24.47;50.88;99949.34;4994801;28;20470;-87
2022/08/17 06:58:37;;;;;;;59.72;21.48;;;;;;;25.01;51.34;100006.31;4988891;28;20137;-90
2022/08/17 07:01:16;;;;;;;46.25;20.20;;;;;;;25.07;51.54;99999.97;4985740;28;20557;-88
2022/08/17 07:04:13;;;;;;;50.80;20.20;;;;;;;25.20;49.94;100000.44;4979980;28;20033;-88
2022/08/17 07:06:53;;;;;;;59.10;20.13;;;;;;;25.22;49.22;100000.81;4976871;28;20070;-91
2022/08/17 07:09:43;;;;;;;72.47;20.65;;;;;;;25.23;49.42;100002.44;4963260;28;20034;-88
2022/08/17 07:12:30;;;;;;;44.95;19.30;;;;;;;25.24;49.43;99995.63;4991891;28;20038;-89
2022/08/17 07:15:52;;;;;;;48.63;20.50;;;;;;;25.22;49.39;99969.25;5009254;28;20046;-88
2022/08/17 07:18:38;;;;;;;42.42;19.50;;;;;;;25.47;49.58;99986.09;4999522;28;20093;-87
2022/08/17 07:21:20;;;;;;;40.55;19.10;;;;;;;25.47;48.54;99978.47;4992245;28;20041;-87
2022/08/17 07:24:19;;;;;;;71.30;19.20;;;;;;;25.57;48.01;99984.50;5001704;28;20041;-88
2022/08/17 07:26:48;;;;;;;82.55;21.55;;;;;;;25.61;47.24;99983.28;4982774;28;20049;-86
2022/08/17 07:32:35;;;;;;;;;;;;;;;25.83;47.18;99981.34;4995862;28;20043;-91
2022/08/17 07:35:27;;;;;;;25.20;16.77;;;;;;;25.92;47.64;99987.31;4982364;28;19921;-85
2022/08/17 07:38:14;;;;;;;54.72;17.00;;;;;;;26.02;47.06;99980.91;5008829;28;20100;-86
2022/08/17 07:41:00;;;;;;;39.38;18.30;;;;;;;26.11;45.13;99974.09;4992323;28;20137;-86
2022/08/17 07:44:01;;;;;;;52.45;17.52;;;;;;;25.97;44.54;99949.72;4999307;28;20507;-89
2022/08/17 07:50:32;;;;;;;60.15;16.10;;;;;;;26.22;43.88;99969.28;4994301;28;20044;-88
2022/08/17 07:53:17;;;;;;;70.63;15.70;;;;;;;26.00;44.62;99909.69;4980744;28;20044;-89
2022/08/17 07:56:36;;;;;;;64.15;14.93;;;;;;;26.40;43.69;99961.63;4997838;28;20037;-89
2022/08/17 08:00:08;;;;;;;58.72;14.45;;;;;;;26.54;43.70;99951.59;4994796;28;20058;-91
2022/08/17 08:02:44;;;;;;;62.25;15.18;;;;;;;26.19;42.39;99909.25;4978570;28;20046;-90
2022/08/17 08:05:38;;;;;;;49.28;12.32;;;;;;;26.27;42.47;99909.22;4978448;28;20153;-88
2022/08/17 08:08:28;;;;;;;34.22;11.75;;;;;;;26.59;42.50;99931.53;4977391;28;20046;-90
2022/08/17 08:11:11;;;;;;;43.22;10.98;;;;;;;26.64;41.74;99931.13;4994510;28;20037;-90
2022/08/17 08:13:42;;;;;;;58.55;12.20;;;;;;;26.87;42.68;99955.88;4996911;28;20034;-90
2022/08/17 08:16:23;;;;;;;36.97;10.98;;;;;;;26.80;41.65;99942.69;4981456;28;20050;-89
2022/08/17 08:18:56;;;;;;;33.03;10.63;;;;;;;26.92;42.81;99947.84;4996263;28;20042;-89
2022/08/17 08:25:01;;;;;;;25.58;9.57;;;;;;;27.19;41.89;99966.16;4995885;28;20046;-90
2022/08/17 08:28:19;;;;;;;40.92;10.02;;;;;;;27.23;41.08;99962.13;4995430;28;20352;-90
2022/08/17 08:30:52;;;;;;;27.10;10.38;;;;;;;27.06;41.46;99929.31;4978189;28;20466;-88
2022/08/17 08:33:43;;;;;;;27.70;8.82;;;;;;;27.13;40.83;99937.72;4994104;28;20070;-87
2022/08/17 08:36:24;;;;;;;35.28;8.10;;;;;;;27.34;40.73;99971.25;4993382;28;20189;-87
2022/08/17 08:46:09;;;;;;;39.45;8.52;;;;;;;27.13;41.08;99904.84;4978158;28;19928;-92
2022/08/17 08:49:00;;;;;;;52.55;8.30;;;;;;;27.49;41.19;99945.91;4993373;28;20046;-92
2022/08/17 08:51:54;;;;;;;20.60;7.75;;;;;;;27.51;39.93;99949.09;4993959;28;20054;-92
2022/08/17 08:54:20;;;;;;;30.60;9.32;;;;;;;27.58;40.72;99946.22;4993744;28;20042;-93
2022/08/17 09:00:13;;;;;;;57.83;9.73;;;;;;;27.70;39.57;99936.50;4955438;29;20043;-93
2022/08/17 09:07:14;;;;;;;27.63;8.00;;;;;;;27.77;38.92;99937.25;5015824;28;20431;-92
2022/08/17 09:10:07;;;;;;;19.52;5.97;;;;;;;27.83;38.62;99941.22;4979425;28;20103;-92
2022/08/17 09:12:55;;;;;;;26.77;6.72;;;;;;;27.89;39.80;99937.97;4979723;28;20070;-90
2022/08/17 09:15:39;;;;;;;71.38;8.77;;;;;;;27.92;38.62;99934.34;5000894;28;20426;-94
2022/08/17 09:18:18;;;;;;;35.65;7.55;;;;;;;28.00;38.64;99930.22;5020556;22;20052;-91
2022/08/17 09:21:36;;;;;;;31.55;6.18;;;;;;;28.04;37.45;99930.97;5004492;23;20046;-93
2022/08/17 09:24:55;;;;;;;33.65;6.40;;;;;;;27.80;38.33;99888.66;4997109;28;20152;-93
2022/08/17 09:27:46;;;;;;;13.65;5.43;;;;;;;28.01;36.95;99903.69;4982062;28;20045;-92
2022/08/17 09:30:13;;;;;;;17.48;6.45;;;;;;;28.23;38.74;99927.56;4957657;28;20037;-92
2022/08/17 09:33:03;;;;;;;20.55;6.63;;;;;;;28.20;37.09;99916.34;4999081;28;20034;-91
2022/08/17 09:36:06;;;;;;;37.63;6.40;;;;;;;28.34;36.24;99922.63;5002902;28;20041;-94
2022/08/17 09:43:03;;;;;;;19.55;5.93;;;;;;;28.44;36.37;99920.13;4994361;28;20120;-89
2022/08/17 09:46:14;;;;;;;12.38;5.90;;;;;;;28.51;37.39;99918.03;4955067;28;20135;-88
2022/08/17 09:49:02;;;;;;;17.58;5.32;;;;;;;28.56;36.90;99922.41;4922387;29;20126;-85
2022/08/17 09:51:40;;;;;;;33.72;7.07;;;;;;;28.44;36.46;99894.81;4951262;28;20620;-85
2022/08/17 09:54:22;;;;;;;21.30;6.22;;;;;;;28.44;36.01;99901.22;4936446;29;20043;-87
2022/08/17 09:57:07;;;;;;;22.30;5.93;;;;;;;28.63;34.84;99922.31;4946314;29;20059;-86
2022/08/17 10:00:09;;;;;;;28.67;6.22;;;;;;;28.65;36.93;99914.25;4905270;29;20039;-86
2022/08/17 10:02:53;;;;;;;37.22;7.30;;;;;;;28.75;37.44;99901.25;4957920;28;20047;-86
2022/08/17 10:05:46;;;;;;;18.85;5.25;;;;;;;28.86;35.56;99915.19;4921026;28;20082;-88
2022/08/17 10:08:19;;;;;;;36.70;7.35;;;;;;;28.89;37.12;99906.69;4926388;28;20038;-91
2022/08/17 10:11:06;;;;;;;24.88;6.43;;;;;;;28.96;36.00;99912.19;4933606;29;20040;-86
2022/08/17 10:14:02;;;;;;;25.08;5.90;;;;;;;28.84;36.59;99887.47;4948199;29;20043;-86
2022/08/17 10:16:37;;;;;;;15.73;6.13;;;;;;;28.92;36.39;99890.97;4929365;29;20150;-87
2022/08/17 10:19:31;;;;;;;18.10;5.93;;;;;;;28.96;36.15;99894.53;4936629;29;20039;-88
2022/08/17 10:27:57;;;;;;;14.60;6.70;;;;;;;29.13;34.95;99889.88;5004475;28;20052;-87
2022/08/17 10:30:31;;;;;;;24.88;6.80;;;;;;;29.20;36.03;99889.75;4976242;28;20052;-91
2022/08/17 10:33:14;;;;;;;16.02;6.20;;;;;;;29.32;34.23;99899.66;5035392;22;20049;-89
2022/08/17 10:35:54;;;;;;;22.25;6.07;;;;;;;29.33;34.12;99896.38;4996197;28;20046;-88
2022/08/17 10:38:37;;;;;;;21.52;6.78;;;;;;;29.22;35.55;99873.25;4995237;28;20385;-86
2022/08/17 10:41:39;;;;;;;42.03;7.93;;;;;;;29.18;36.48;99864.06;5027226;28;20073;-87
2022/08/17 10:44:34;;;;;;;23.38;7.25;;;;;;;29.46;35.53;99893.78;5020429;28;20097;-88
2022/08/17 10:48:04;;;;;;;30.73;7.63;;;;;;;29.55;35.43;99890.41;4983187;28;20077;-88
2022/08/17 10:50:58;;;;;;;24.55;7.88;;;;;;;29.61;34.49;99889.53;4964887;28;20447;-86
2022/08/17 10:53:51;;;;;;;26.33;7.47;;;;;;;29.70;34.75;99894.59;5030209;28;20049;-87
2022/08/17 10:59:47;;;;;;;16.83;7.65;;;;;;;29.78;34.30;99879.16;4999579;28;20045;-91
2022/08/17 11:02:41;;;;;;;29.38;7.35;;;;;;;29.71;32.71;99871.63;5001114;28;20046;-90
2022/08/17 11:05:44;;;;;;;29.73;7.97;;;;;;;29.77;32.72;99873.94;4995813;28;20068;-91
2022/08/17 11:08:22;;;;;;;22.98;7.32;;;;;;;29.74;34.20;99872.78;5004134;28;20060;-93
2022/08/17 11:11:34;;;;;;;26.33;8.07;;;;;;;29.65;33.06;99842.34;4991586;28;20046;-88
2022/08/17 11:14:16;;;;;;;43.05;9.05;;;;;;;29.95;33.30;99871.59;5008950;28;20128;-87
2022/08/17 11:17:05;;;;;;;32.33;8.65;;;;;;;29.96;31.72;99865.50;5004972;28;20041;-90
2022/08/17 11:20:22;;;;;;;36.70;9.52;;;;;;;30.01;32.14;99857.81;5002388;28;20392;-87
2022/08/17 11:23:06;;;;;;;26.20;8.45;;;;;;;30.04;32.10;99871.81;4966772;28;20121;-87
2022/08/17 11:25:42;;;;;;;26.10;8.75;;;;;;;30.04;32.56;99863.38;5020024;28;20045;-89
2022/08/17 11:28:26;;;;;;;40.95;9.27;;;;;;;30.10;31.77;99858.81;4998045;28;20052;-89
2022/08/17 11:30:59;;;;;;;37.28;9.50;;;;;;;29.99;32.79;99844.13;5001879;28;20060;-89
2022/08/17 11:33:29;;;;;;;27.13;9.38;;;;;;;30.08;32.26;99841.53;5001772;28;20044;-89
2022/08/17 11:36:10;;;;;;;95.53;12.15;;;;;;;30.26;32.03;99852.47;5013745;28;20052;-94
2022/08/17 11:39:03;;;;;;;37.97;9.27;;;;;;;30.23;31.64;99858.97;5009205;28;20041;-87
2022/08/17 11:42:24;;;;;;;43.28;10.15;;;;;;;30.20;31.92;99851.41;4941471;28;20043;-87
2022/08/17 11:44:57;;;;;;;32.35;9.75;;;;;;;30.30;30.65;99853.22;4926654;28;20189;-87
2022/08/17 11:54:08;;;;;;;64.88;13.43;;;;;;;30.03;31.76;99821.50;4950026;28;20097;-87
2022/08/17 11:57:25;;;;;;;42.45;12.18;;;;;;;30.19;34.07;99835.69;4956667;28;20079;-87
2022/08/17 12:00:27;;;;;;;37.17;12.07;;;;;;;30.22;34.25;99826.38;4939572;29;20047;-89
2022/08/17 12:03:42;;;;;;;30.15;10.95;;;;;;;30.15;32.59;99816.00;4925860;28;20043;-87
2022/08/17 12:06:44;;;;;;;27.95;10.88;;;;;;;30.27;31.98;99810.97;4890740;29;20446;-89
2022/08/17 12:09:31;;;;;;;27.88;11.00;;;;;;;30.26;31.34;99795.25;4910183;29;20079;-88
2022/08/17 12:12:28;;;;;;;38.75;11.80;;;;;;;30.38;32.11;99803.06;4919692;29;20048;-88
2022/08/17 12:25:09;;;;;;;40.92;11.52;;;;;;;30.68;30.70;99801.97;4985374;28;20096;-87
2022/08/17 12:27:43;;;;;;;15.98;10.52;;;;;;;30.71;32.73;99820.06;4960946;28;20078;-86
2022/08/17 12:30:19;;;;;;;45.78;12.00;;;;;;;30.77;31.92;99821.19;4959601;28;20451;-88
2022/08/17 12:32:47;;;;;;;33.13;11.38;;;;;;;30.72;32.07;99799.06;4976980;28;20133;-87
2022/08/17 12:35:28;;;;;;;37.47;12.27;;;;;;;30.78;31.43;99817.09;4994943;28;20508;-88
2022/08/17 12:37:59;;;;;;;38.55;11.85;;;;;;;30.66;31.19;99799.59;4998284;28;20598;-85
2022/08/17 12:40:33;;;;;;;36.70;12.63;;;;;;;30.76;31.97;99802.59;4985315;28;20096;-90
2022/08/17 12:43:09;;;;;;;78.43;15.43;;;;;;;30.74;29.50;99807.91;4986064;28;20097;-86
2022/08/17 12:45:38;;;;;;;43.50;14.05;;;;;;;30.55;29.39;99803.91;4965565;28;20042;-87
2022/08/17 12:48:42;;;;;;;53.03;15.40;;;;;;;30.48;31.38;99784.31;4994067;28;20045;-84
2022/08/17 12:51:13;;;;;;;68.97;14.57;;;;;;;30.45;30.68;99783.16;4993202;28;20034;-89
2022/08/17 12:53:53;;;;;;;45.10;13.85;;;;;;;30.51;31.36;99791.91;5002840;28;20049;-87
2022/08/17 12:59:05;;;;;;;72.53;16.08;;;;;;;30.34;30.17;99766.47;5001593;28;20103;-86
2022/08/17 13:01:36;;;;;;;56.80;14.60;;;;;;;30.55;31.11;99807.50;5018344;28;20048;-84
2022/08/17 13:04:08;;;;;;;50.75;15.00;;;;;;;30.56;30.13;99811.13;4979350;28;20052;-87
2022/08/17 13:06:36;;;;;;;55.50;14.65;;;;;;;30.38;28.75;99794.59;4960661;28;20100;-88
2022/08/17 13:09:21;;;;;;;92.50;17.77;;;;;;;30.39;30.28;99796.19;5031254;23;20049;-87
2022/08/17 13:11:59;;;;;;;45.20;14.07;;;;;;;30.64;31.29;99804.09;4978309;28;20046;-87
2022/08/17 13:16:29;;;;;;;;;;;;;;;;;;;;;
2022/08/17 13:20:30;;;;;;;94.93;16.92;;;;;;;30.80;28.94;99803.38;4878651;29;20095;-90
2022/08/17 13:23:27;;;;;;;93.45;17.13;;;;;;;30.43;30.25;99741.28;4877504;29;20040;-87
2022/08/17 13:26:07;;;;;;;70.10;15.20;;;;;;;30.66;30.23;99781.84;4875683;29;20079;-86
2022/08/17 13:28:36;;;;;;;52.67;16.42;;;;;;;30.73;31.01;99801.47;4875772;29;20045;-86
2022/08/17 13:31:31;;;;;;;55.53;14.05;;;;;;;30.64;29.09;99802.06;4860269;29;20065;-85
2022/08/17 13:34:27;;;;;;;57.97;15.15;;;;;;;30.68;30.43;99790.69;4876368;29;20049;-86
2022/08/17 13:37:18;;;;;;;44.42;14.40;;;;;;;30.72;30.34;99797.03;4845521;29;20045;-87
2022/08/17 13:39:46;;;;;;;101.47;17.08;;;;;;;30.63;31.04;99780.72;5038615;23;20061;-87
2022/08/17 13:42:31;;;;;;;40.03;14.88;;;;;;;30.55;28.44;99793.41;4997339;28;20120;-86
2022/08/17 13:44:59;;;;;;;33.40;13.13;;;;;;;30.42;28.53;99795.31;5014100;28;20124;-86
2022/08/17 13:47:27;;;;;;;67.47;12.85;;;;;;;30.52;30.23;99787.84;4997450;28;20057;-86
2022/08/17 13:49:54;;;;;;;50.97;13.75;;;;;;;30.59;30.60;99796.94;4981394;28;20044;-86
2022/08/17 13:52:39;;;;;;;60.40;14.63;;;;;;;30.66;30.82;99788.31;4981681;28;20064;-87
2022/08/17 13:55:19;;;;;;;49.93;13.73;;;;;;;30.65;29.38;99792.34;5013312;28;20096;-86
2022/08/17 13:57:50;;;;;;;55.10;14.73;;;;;;;30.64;30.58;99790.78;5031601;28;20041;-86
2022/08/17 14:00:35;;;;;;;63.60;14.38;;;;;;;30.57;29.08;99785.31;4978665;28;20034;-86
2022/08/17 14:03:07;;;;;;;37.67;13.20;;;;;;;30.43;30.88;99786.44;5014047;28;20052;-85
2022/08/17 14:05:38;;;;;;;41.90;13.65;;;;;;;30.29;30.38;99769.00;5011481;28;20049;-86
2022/08/17 14:08:11;;;;;;;59.78;13.65;;;;;;;30.31;29.93;99784.28;4983311;28;20033;-88
2022/08/17 14:10:38;;;;;;;47.35;11.70;;;;;;;30.11;29.25;99746.81;5034827;28;20099;-86
2022/08/17 14:13:05;;;;;;;;;;;;;;;30.32;29.82;99774.56;5035177;28;20041;-87
2022/08/17 14:16:00;;;;;;;37.40;11.70;;;;;;;30.28;31.69;99779.50;5019079;28;19917;-92
2022/08/17 14:18:26;;;;;;;46.20;10.70;;;;;;;29.89;29.65;99730.34;5031671;22;20083;-95
2022/08/17 14:27:50;;;;;;;37.08;10.90;;;;;;;30.11;30.01;99772.19;5013550;28;20038;-86
2022/08/17 14:30:42;;;;;;;79.97;11.77;;;;;;;30.06;29.67;99762.22;4994899;28;20041;-86
2022/08/17 14:33:32;;;;;;;92.55;13.90;;;;;;;29.92;30.34;99759.69;4875754;29;20752;-87
2022/08/17 14:36:10;;;;;;;73.60;12.50;;;;;;;29.83;30.11;99760.25;4875411;29;20053;-85
2022/08/17 14:38:36;;;;;;;90.32;13.82;;;;;;;29.93;29.64;99769.75;4860381;29;20052;-85
2022/08/17 14:41:06;;;;;;;50.55;10.02;;;;;;;29.65;30.89;99732.47;4844886;29;20160;-85
2022/08/17 14:43:34;;;;;;;30.63;9.65;;;;;;;29.82;30.94;99757.91;4859872;29;20642;-87
2022/08/17 14:46:04;;;;;;;32.20;9.88;;;;;;;29.95;29.76;99765.25;4858177;29;20056;-86
2022/08/17 14:48:33;;;;;;;56.72;11.85;;;;;;;29.78;29.83;99731.81;4860538;29;20053;-87
2022/08/17 14:51:01;;;;;;;52.97;10.38;;;;;;;29.97;29.38;99773.31;4869517;29;20045;-88
2022/08/17 14:53:29;;;;;;;55.80;10.48;;;;;;;29.98;29.93;99771.28;4857460;29;20049;-88
2022/08/17 14:55:56;;;;;;;54.30;10.98;;;;;;;30.04;32.18;99769.53;4872538;29;20037;-87
2022/08/17 14:58:22;;;;;;;50.50;11.20;;;;;;;29.90;30.54;99736.78;4852229;29;20050;-86
2022/08/17 15:00:52;;;;;;;43.75;9.38;;;;;;;29.91;30.13;99749.66;4887874;29;20545;-87
2022/08/17 15:03:18;;;;;;;61.92;10.15;;;;;;;29.87;30.61;99752.56;4877233;29;20055;-88
2022/08/17 15:08:16;;;;;;;51.67;10.90;;;;;;;29.82;31.07;99749.44;4946854;29;20040;-87
2022/08/17 15:10:43;;;;;;;48.92;10.95;;;;;;;29.79;31.26;99751.09;4968595;28;20042;-88
2022/08/17 15:13:24;;;;;;;59.75;10.90;;;;;;;29.83;31.09;99765.91;5018846;28;20045;-86
2022/08/17 15:15:51;;;;;;;33.60;10.10;;;;;;;29.77;30.57;99783.75;5020059;28;20033;-86
2022/08/17 15:18:17;;;;;;;;;;;;;;;29.71;30.94;99770.19;5019098;28;20045;-87
2022/08/17 15:20:44;;;;;;;80.40;12.27;;;;;;;29.37;31.85;99716.91;5010543;28;19917;-87
2022/08/17 15:23:17;;;;;;;52.08;10.63;;;;;;;29.52;32.20;99765.28;5020494;28;20569;-88
2022/08/17 15:25:45;;;;;;;76.88;12.35;;;;;;;29.23;32.09;99751.72;4988681;28;20460;-88
2022/08/17 15:28:12;;;;;;;92.35;13.75;;;;;;;29.09;31.84;99757.63;5033710;28;20073;-87
2022/08/17 15:30:41;;;;;;;;;;;;;;;29.04;33.05;99775.00;5043272;28;20048;-87
2022/08/17 15:33:30;;;;;;;79.78;11.13;;;;;;;28.84;32.72;99763.66;5024015;28;19921;-87
2022/08/17 15:36:00;;;;;;;80.75;12.32;;;;;;;28.86;32.57;99769.63;5020340;28;20060;-86
2022/08/17 15:38:27;;;;;;;66.07;11.52;;;;;;;28.68;32.13;99744.59;5009773;28;20072;-86
2022/08/17 15:40:57;;;;;;;70.97;11.50;;;;;;;28.80;32.12;99769.31;5022836;28;20034;-86
2022/08/17 15:43:26;;;;;;;53.92;10.00;;;;;;;28.60;31.76;99745.13;5014844;28;20041;-87
2022/08/17 15:46:13;;;;;;;60.72;11.05;;;;;;;28.65;32.74;99769.97;5010658;28;20048;-87
2022/08/17 15:48:50;;;;;;;45.05;10.32;;;;;;;28.52;32.43;99773.38;5018093;28;20405;-88
2022/08/17 15:51:33;;;;;;;101.68;12.13;;;;;;;28.43;33.44;99766.66;5031882;28;20037;-87
2022/08/17 15:54:05;;;;;;;152.98;18.13;;;;;;;28.36;33.29;99775.19;4979817;28;20399;-88
2022/08/17 15:56:33;;;;;;;172.25;22.40;;;;;;;28.03;34.15;99760.75;4976414;28;20053;-86
2022/08/17 15:58:59;;;;;;;165.32;21.20;;;;;;;27.94;33.71;99766.09;5029472;28;20036;-86
2022/08/17 16:01:27;;;;;;;143.57;20.30;;;;;;;27.72;34.32;99752.28;4977906;28;20047;-86
2022/08/17 16:03:57;;;;;;;176.57;20.25;;;;;;;27.69;34.98;99774.78;5012426;28;20059;-87
2022/08/17 16:07:10;;;;;;;237.82;23.80;;;;;;;27.54;34.71;99774.94;5010172;28;20046;-88
2022/08/17 16:09:40;;;;;;;264.05;28.05;;;;;;;26.97;35.16;99702.47;5016848;28;20044;-90
2022/08/17 16:12:33;;;;;;;232.55;24.92;;;;;;;27.33;35.70;99773.16;5034274;28;20515;-87
2022/08/17 16:15:02;;;;;;;217.85;21.75;;;;;;;27.16;35.97;99765.69;5000955;28;20041;-86
2022/08/17 16:17:29;;;;;;;244.43;24.15;;;;;;;26.97;38.06;99757.81;4993463;28;20049;-86
2022/08/17 16:19:56;;;;;;;203.23;24.08;;;;;;;26.86;37.39;99755.09;4981237;28;20139;-85
2022/08/17 16:22:34;;;;;;;;;;;;;;;26.91;37.42;99780.69;5050632;28;20418;-86
2022/08/17 16:25:07;;;;;;;183.48;23.50;;;;;;;26.76;37.17;99770.81;5050136;28;19920;-86
2022/08/17 16:27:35;;;;;;;154.35;19.70;;;;;;;26.65;36.76;99765.25;5001367;28;20124;-86
2022/08/17 16:30:05;;;;;;;142.35;21.55;;;;;;;26.50;38.34;99751.75;4999685;28;20396;-86
2022/08/17 16:32:33;;;;;;;161.15;20.60;;;;;;;26.45;39.59;99758.53;5016737;28;20077;-86
2022/08/17 16:35:20;;;;;;;143.45;22.02;;;;;;;26.30;38.96;99765.47;5014366;28;20575;-86
2022/08/17 16:37:57;;;;;;;169.98;23.58;;;;;;;26.20;39.62;99751.09;5029499;28;20393;-86
2022/08/17 16:40:44;;;;;;;158.68;23.58;;;;;;;26.12;41.00;99760.72;5029313;28;20407;-86
2022/08/17 16:43:20;;;;;;;148.25;21.90;;;;;;;26.18;39.69;99789.13;4990882;28;20056;-86
2022/08/17 16:46:00;;;;;;;157.25;22.58;;;;;;;25.88;40.32;99756.03;4993302;28;20062;-85
2022/08/17 16:48:28;;;;;;;159.02;23.88;;;;;;;25.98;41.45;99786.81;4993301;28;20676;-86
2022/08/17 16:51:26;;;;;;;141.30;22.27;;;;;;;25.85;41.64;99773.66;4978289;28;20437;-84